sensor_id;sensor_type;location;lat;lon;timestamp;P1;durP1;ratioP1;P2;durP2;ratioP2
29908;SDS011;36247;51.952;6.146;2023-01-26T00:01:36;118.00;;;36.22;;
29908;SDS011;36247;51.952;6.146;2023-01-26T00:04:02;154.27;;;45.42;;
29908;SDS011;36247;51.952;6.146;2023-01-26T00:06:27;158.90;;;47.30;;
29908;SDS011;36247;51.952;6.146;2023-01-26T00:08:54;142.80;;;44.25;;
29908;SDS011;36247;51.952;6.146;2023-01-26T00:11:22;153.10;;;44.17;;
29908;SDS011;36247;51.952;6.146;2023-01-26T00:13:51;149.27;;;45.05;;
29908;SDS011;36247;51.952;6.146;2023-01-26T00:16:17;153.07;;;45.72;;
29908;SDS011;36247;51.952;6.146;2023-01-26T00:18:42;155.15;;;44.90;;
29908;SDS011;36247;51.952;6.146;2023-01-26T00:21:15;138.02;;;39.38;;
29908;SDS011;36247;51.952;6.146;2023-01-26T00:23:42;135.77;;;41.90;;
29908;SDS011;36247;51.952;6.146;2023-01-26T00:26:09;147.77;;;46.58;;
29908;SDS011;36247;51.952;6.146;2023-01-26T00:28:37;145.13;;;44.42;;
29908;SDS011;36247;51.952;6.146;2023-01-26T00:31:04;144.13;;;42.38;;
29908;SDS011;36247;51.952;6.146;2023-01-26T00:33:31;150.75;;;46.10;;
29908;SDS011;36247;51.952;6.146;2023-01-26T00:35:56;147.10;;;42.08;;
29908;SDS011;36247;51.952;6.146;2023-01-26T00:38:22;141.40;;;41.75;;
29908;SDS011;36247;51.952;6.146;2023-01-26T00:40:48;137.05;;;43.35;;
29908;SDS011;36247;51.952;6.146;2023-01-26T00:43:13;128.45;;;42.83;;
29908;SDS011;36247;51.952;6.146;2023-01-26T00:45:39;138.10;;;42.28;;
29908;SDS011;36247;51.952;6.146;2023-01-26T00:48:05;136.85;;;43.40;;
29908;SDS011;36247;51.952;6.146;2023-01-26T00:50:30;142.40;;;41.28;;
29908;SDS011;36247;51.952;6.146;2023-01-26T00:52:57;134.75;;;40.65;;
29908;SDS011;36247;51.952;6.146;2023-01-26T00:55:23;127.13;;;37.40;;
29908;SDS011;36247;51.952;6.146;2023-01-26T00:57:48;131.45;;;40.80;;
29908;SDS011;36247;51.952;6.146;2023-01-26T01:00:15;123.78;;;35.90;;
29908;SDS011;36247;51.952;6.146;2023-01-26T01:02:42;121.78;;;39.50;;
29908;SDS011;36247;51.952;6.146;2023-01-26T01:05:09;127.22;;;39.90;;
29908;SDS011;36247;51.952;6.146;2023-01-26T01:07:35;124.82;;;37.75;;
29908;SDS011;36247;51.952;6.146;2023-01-26T01:10:01;127.82;;;38.90;;
29908;SDS011;36247;51.952;6.146;2023-01-26T01:12:26;124.30;;;37.33;;
29908;SDS011;36247;51.952;6.146;2023-01-26T01:14:53;130.68;;;39.30;;
29908;SDS011;36247;51.952;6.146;2023-01-26T01:17:18;119.95;;;37.13;;
29908;SDS011;36247;51.952;6.146;2023-01-26T01:19:44;125.45;;;38.25;;
29908;SDS011;36247;51.952;6.146;2023-01-26T01:22:11;123.80;;;41.45;;
29908;SDS011;36247;51.952;6.146;2023-01-26T01:24:36;127.57;;;37.80;;
29908;SDS011;36247;51.952;6.146;2023-01-26T01:27:02;123.22;;;38.33;;
29908;SDS011;36247;51.952;6.146;2023-01-26T01:29:27;120.60;;;37.85;;
29908;SDS011;36247;51.952;6.146;2023-01-26T01:31:53;112.20;;;34.90;;
29908;SDS011;36247;51.952;6.146;2023-01-26T01:34:18;124.70;;;38.35;;
29908;SDS011;36247;51.952;6.146;2023-01-26T01:36:44;127.80;;;38.65;;
29908;SDS011;36247;51.952;6.146;2023-01-26T01:39:09;134.93;;;39.75;;
29908;SDS011;36247;51.952;6.146;2023-01-26T01:41:34;131.88;;;40.30;;
29908;SDS011;36247;51.952;6.146;2023-01-26T01:44:17;121.32;;;36.00;;
29908;SDS011;36247;51.952;6.146;2023-01-26T01:46:52;131.95;;;41.70;;
29908;SDS011;36247;51.952;6.146;2023-01-26T01:51:56;131.98;;;42.00;;
29908;SDS011;36247;51.952;6.146;2023-01-26T01:54:38;122.55;;;38.90;;
29908;SDS011;36247;51.952;6.146;2023-01-26T01:57:09;122.05;;;38.17;;
29908;SDS011;36247;51.952;6.146;2023-01-26T01:59:45;116.20;;;38.60;;
29908;SDS011;36247;51.952;6.146;2023-01-26T02:02:18;123.78;;;38.67;;
29908;SDS011;36247;51.952;6.146;2023-01-26T02:04:44;117.15;;;38.53;;
29908;SDS011;36247;51.952;6.146;2023-01-26T02:07:10;124.82;;;37.50;;
29908;SDS011;36247;51.952;6.146;2023-01-26T02:09:37;126.68;;;39.33;;
29908;SDS011;36247;51.952;6.146;2023-01-26T02:12:24;112.53;;;35.33;;
29908;SDS011;36247;51.952;6.146;2023-01-26T02:14:53;122.50;;;36.20;;
29908;SDS011;36247;51.952;6.146;2023-01-26T02:17:20;119.05;;;37.20;;
29908;SDS011;36247;51.952;6.146;2023-01-26T02:22:44;104.72;;;33.10;;
29908;SDS011;36247;51.952;6.146;2023-01-26T02:25:24;106.30;;;32.90;;
29908;SDS011;36247;51.952;6.146;2023-01-26T02:27:58;106.88;;;35.50;;
29908;SDS011;36247;51.952;6.146;2023-01-26T02:30:24;110.63;;;35.92;;
29908;SDS011;36247;51.952;6.146;2023-01-26T02:32:51;87.80;;;30.63;;
29908;SDS011;36247;51.952;6.146;2023-01-26T02:35:17;112.55;;;37.42;;
29908;SDS011;36247;51.952;6.146;2023-01-26T02:37:43;105.95;;;35.40;;
29908;SDS011;36247;51.952;6.146;2023-01-26T02:40:13;97.63;;;33.30;;
29908;SDS011;36247;51.952;6.146;2023-01-26T02:42:45;110.40;;;35.83;;
29908;SDS011;36247;51.952;6.146;2023-01-26T02:45:14;118.47;;;36.03;;
29908;SDS011;36247;51.952;6.146;2023-01-26T02:47:42;109.22;;;35.65;;
29908;SDS011;36247;51.952;6.146;2023-01-26T02:50:09;112.82;;;35.90;;
29908;SDS011;36247;51.952;6.146;2023-01-26T02:52:35;105.20;;;34.85;;
29908;SDS011;36247;51.952;6.146;2023-01-26T02:55:09;103.63;;;34.22;;
29908;SDS011;36247;51.952;6.146;2023-01-26T02:57:47;110.57;;;37.17;;
29908;SDS011;36247;51.952;6.146;2023-01-26T03:02:42;110.95;;;35.20;;
29908;SDS011;36247;51.952;6.146;2023-01-26T03:05:08;102.82;;;32.60;;
29908;SDS011;36247;51.952;6.146;2023-01-26T03:07:33;107.95;;;37.50;;
29908;SDS011;36247;51.952;6.146;2023-01-26T03:09:59;100.40;;;33.40;;
29908;SDS011;36247;51.952;6.146;2023-01-26T03:12:25;105.85;;;35.10;;
29908;SDS011;36247;51.952;6.146;2023-01-26T03:14:51;102.32;;;34.20;;
29908;SDS011;36247;51.952;6.146;2023-01-26T03:17:35;101.43;;;31.85;;
29908;SDS011;36247;51.952;6.146;2023-01-26T03:20:03;101.28;;;32.08;;
29908;SDS011;36247;51.952;6.146;2023-01-26T03:22:48;103.78;;;38.55;;
29908;SDS011;36247;51.952;6.146;2023-01-26T03:25:32;113.68;;;34.60;;
29908;SDS011;36247;51.952;6.146;2023-01-26T03:28:17;104.07;;;32.22;;
29908;SDS011;36247;51.952;6.146;2023-01-26T03:30:48;100.10;;;33.08;;
29908;SDS011;36247;51.952;6.146;2023-01-26T03:33:15;105.63;;;35.80;;
29908;SDS011;36247;51.952;6.146;2023-01-26T03:35:42;103.03;;;35.00;;
29908;SDS011;36247;51.952;6.146;2023-01-26T03:38:08;111.00;;;35.05;;
29908;SDS011;36247;51.952;6.146;2023-01-26T03:40:48;102.53;;;34.83;;
29908;SDS011;36247;51.952;6.146;2023-01-26T03:43:32;113.00;;;34.95;;
29908;SDS011;36247;51.952;6.146;2023-01-26T03:46:17;105.35;;;34.22;;
29908;SDS011;36247;51.952;6.146;2023-01-26T03:49:02;95.57;;;33.05;;
29908;SDS011;36247;51.952;6.146;2023-01-26T03:51:50;99.07;;;36.45;;
29908;SDS011;36247;51.952;6.146;2023-01-26T03:54:36;100.20;;;31.75;;
29908;SDS011;36247;51.952;6.146;2023-01-26T03:57:20;104.15;;;33.80;;
29908;SDS011;36247;51.952;6.146;2023-01-26T03:59:47;109.45;;;35.60;;
29908;SDS011;36247;51.952;6.146;2023-01-26T04:02:18;98.90;;;32.92;;
29908;SDS011;36247;51.952;6.146;2023-01-26T04:05:03;100.60;;;34.15;;
29908;SDS011;36247;51.952;6.146;2023-01-26T04:07:52;92.32;;;33.33;;
29908;SDS011;36247;51.952;6.146;2023-01-26T04:10:36;86.53;;;28.13;;
29908;SDS011;36247;51.952;6.146;2023-01-26T04:13:03;90.75;;;31.83;;
29908;SDS011;36247;51.952;6.146;2023-01-26T04:15:53;85.70;;;29.83;;
29908;SDS011;36247;51.952;6.146;2023-01-26T04:18:37;78.63;;;28.17;;
29908;SDS011;36247;51.952;6.146;2023-01-26T04:21:21;88.13;;;30.17;;
29908;SDS011;36247;51.952;6.146;2023-01-26T04:24:04;92.00;;;30.35;;
29908;SDS011;36247;51.952;6.146;2023-01-26T04:26:38;79.88;;;27.02;;
29908;SDS011;36247;51.952;6.146;2023-01-26T04:29:09;78.28;;;28.02;;
29908;SDS011;36247;51.952;6.146;2023-01-26T04:31:36;79.68;;;26.90;;
29908;SDS011;36247;51.952;6.146;2023-01-26T04:34:03;75.35;;;27.00;;
29908;SDS011;36247;51.952;6.146;2023-01-26T04:36:30;80.10;;;28.25;;
29908;SDS011;36247;51.952;6.146;2023-01-26T04:38:56;77.60;;;26.50;;
29908;SDS011;36247;51.952;6.146;2023-01-26T04:41:22;71.72;;;27.05;;
29908;SDS011;36247;51.952;6.146;2023-01-26T04:43:59;70.03;;;25.33;;
29908;SDS011;36247;51.952;6.146;2023-01-26T04:46:25;75.88;;;26.15;;
29908;SDS011;36247;51.952;6.146;2023-01-26T04:48:51;72.97;;;26.08;;
29908;SDS011;36247;51.952;6.146;2023-01-26T04:51:17;69.25;;;24.92;;
29908;SDS011;36247;51.952;6.146;2023-01-26T04:53:45;67.30;;;23.10;;
29908;SDS011;36247;51.952;6.146;2023-01-26T04:56:21;61.35;;;23.13;;
29908;SDS011;36247;51.952;6.146;2023-01-26T04:58:57;61.15;;;21.25;;
29908;SDS011;36247;51.952;6.146;2023-01-26T05:01:24;57.20;;;21.40;;
29908;SDS011;36247;51.952;6.146;2023-01-26T05:03:50;53.05;;;21.92;;
29908;SDS011;36247;51.952;6.146;2023-01-26T05:06:16;59.13;;;21.90;;
29908;SDS011;36247;51.952;6.146;2023-01-26T05:08:44;57.55;;;21.40;;
29908;SDS011;36247;51.952;6.146;2023-01-26T05:11:10;55.72;;;22.25;;
29908;SDS011;36247;51.952;6.146;2023-01-26T05:14:02;61.92;;;23.73;;
29908;SDS011;36247;51.952;6.146;2023-01-26T05:16:41;59.25;;;20.70;;
29908;SDS011;36247;51.952;6.146;2023-01-26T05:19:42;64.07;;;24.45;;
29908;SDS011;36247;51.952;6.146;2023-01-26T05:22:26;62.85;;;22.02;;
29908;SDS011;36247;51.952;6.146;2023-01-26T05:25:10;60.10;;;23.23;;
29908;SDS011;36247;51.952;6.146;2023-01-26T05:27:44;60.65;;;23.23;;
29908;SDS011;36247;51.952;6.146;2023-01-26T05:30:10;57.55;;;21.65;;
29908;SDS011;36247;51.952;6.146;2023-01-26T05:32:37;56.92;;;21.42;;
29908;SDS011;36247;51.952;6.146;2023-01-26T05:35:04;55.25;;;20.92;;
29908;SDS011;36247;51.952;6.146;2023-01-26T05:37:31;58.58;;;22.48;;
29908;SDS011;36247;51.952;6.146;2023-01-26T05:39:57;54.05;;;20.05;;
29908;SDS011;36247;51.952;6.146;2023-01-26T05:42:23;51.55;;;18.77;;
29908;SDS011;36247;51.952;6.146;2023-01-26T05:45:21;53.20;;;20.65;;
29908;SDS011;36247;51.952;6.146;2023-01-26T05:47:50;47.92;;;19.23;;
29908;SDS011;36247;51.952;6.146;2023-01-26T05:50:17;48.75;;;18.77;;
29908;SDS011;36247;51.952;6.146;2023-01-26T05:53:02;50.47;;;18.23;;
29908;SDS011;36247;51.952;6.146;2023-01-26T05:55:29;47.05;;;18.73;;
29908;SDS011;36247;51.952;6.146;2023-01-26T05:57:54;47.47;;;17.55;;
29908;SDS011;36247;51.952;6.146;2023-01-26T06:00:20;50.20;;;20.25;;
29908;SDS011;36247;51.952;6.146;2023-01-26T06:02:54;47.08;;;19.20;;
29908;SDS011;36247;51.952;6.146;2023-01-26T06:05:20;48.40;;;18.95;;
29908;SDS011;36247;51.952;6.146;2023-01-26T06:07:47;44.60;;;17.73;;
29908;SDS011;36247;51.952;6.146;2023-01-26T06:10:20;48.60;;;19.27;;
29908;SDS011;36247;51.952;6.146;2023-01-26T06:12:55;48.85;;;18.50;;
29908;SDS011;36247;51.952;6.146;2023-01-26T06:15:36;44.58;;;16.92;;
29908;SDS011;36247;51.952;6.146;2023-01-26T06:18:02;45.25;;;17.40;;
29908;SDS011;36247;51.952;6.146;2023-01-26T06:20:30;47.92;;;17.80;;
29908;SDS011;36247;51.952;6.146;2023-01-26T06:22:59;49.53;;;19.38;;
29908;SDS011;36247;51.952;6.146;2023-01-26T06:25:26;52.25;;;18.63;;
29908;SDS011;36247;51.952;6.146;2023-01-26T06:27:55;45.70;;;17.38;;
29908;SDS011;36247;51.952;6.146;2023-01-26T06:30:24;46.67;;;18.13;;
29908;SDS011;36247;51.952;6.146;2023-01-26T06:32:50;45.25;;;18.60;;
29908;SDS011;36247;51.952;6.146;2023-01-26T06:35:16;49.47;;;19.77;;
29908;SDS011;36247;51.952;6.146;2023-01-26T06:37:42;48.15;;;19.33;;
29908;SDS011;36247;51.952;6.146;2023-01-26T06:40:08;45.78;;;19.20;;
29908;SDS011;36247;51.952;6.146;2023-01-26T06:42:34;47.65;;;19.23;;
29908;SDS011;36247;51.952;6.146;2023-01-26T06:44:59;46.80;;;19.33;;
29908;SDS011;36247;51.952;6.146;2023-01-26T06:47:25;50.30;;;19.30;;
29908;SDS011;36247;51.952;6.146;2023-01-26T06:49:50;47.15;;;19.17;;
29908;SDS011;36247;51.952;6.146;2023-01-26T06:52:21;50.15;;;19.58;;
29908;SDS011;36247;51.952;6.146;2023-01-26T06:54:53;50.53;;;19.33;;
29908;SDS011;36247;51.952;6.146;2023-01-26T06:57:40;46.17;;;19.02;;
29908;SDS011;36247;51.952;6.146;2023-01-26T07:00:31;48.60;;;19.05;;
29908;SDS011;36247;51.952;6.146;2023-01-26T07:03:11;45.08;;;18.80;;
29908;SDS011;36247;51.952;6.146;2023-01-26T07:05:37;51.22;;;19.65;;
29908;SDS011;36247;51.952;6.146;2023-01-26T07:08:02;56.00;;;21.05;;
29908;SDS011;36247;51.952;6.146;2023-01-26T07:10:30;51.40;;;19.77;;
29908;SDS011;36247;51.952;6.146;2023-01-26T07:12:56;51.08;;;18.88;;
29908;SDS011;36247;51.952;6.146;2023-01-26T07:15:21;52.28;;;20.88;;
29908;SDS011;36247;51.952;6.146;2023-01-26T07:17:47;53.88;;;20.50;;
29908;SDS011;36247;51.952;6.146;2023-01-26T07:20:12;55.58;;;21.40;;
29908;SDS011;36247;51.952;6.146;2023-01-26T07:22:38;56.08;;;21.48;;
29908;SDS011;36247;51.952;6.146;2023-01-26T07:25:04;61.78;;;22.05;;
29908;SDS011;36247;51.952;6.146;2023-01-26T07:27:29;63.30;;;22.45;;
29908;SDS011;36247;51.952;6.146;2023-01-26T07:29:55;58.92;;;21.98;;
29908;SDS011;36247;51.952;6.146;2023-01-26T07:32:20;56.20;;;20.77;;
29908;SDS011;36247;51.952;6.146;2023-01-26T07:34:45;65.65;;;22.52;;
29908;SDS011;36247;51.952;6.146;2023-01-26T07:37:12;55.30;;;21.77;;
29908;SDS011;36247;51.952;6.146;2023-01-26T07:39:37;58.83;;;22.75;;
29908;SDS011;36247;51.952;6.146;2023-01-26T07:42:03;55.22;;;22.55;;
29908;SDS011;36247;51.952;6.146;2023-01-26T07:44:58;58.67;;;23.80;;
29908;SDS011;36247;51.952;6.146;2023-01-26T07:47:24;56.03;;;22.75;;
29908;SDS011;36247;51.952;6.146;2023-01-26T07:49:49;57.95;;;21.98;;
29908;SDS011;36247;51.952;6.146;2023-01-26T07:52:15;59.78;;;23.80;;
29908;SDS011;36247;51.952;6.146;2023-01-26T07:54:40;54.33;;;21.88;;
29908;SDS011;36247;51.952;6.146;2023-01-26T07:57:06;66.40;;;24.73;;
29908;SDS011;36247;51.952;6.146;2023-01-26T07:59:32;67.35;;;23.95;;
29908;SDS011;36247;51.952;6.146;2023-01-26T08:01:58;58.53;;;22.25;;
29908;SDS011;36247;51.952;6.146;2023-01-26T08:04:23;59.85;;;22.40;;
29908;SDS011;36247;51.952;6.146;2023-01-26T08:06:51;60.35;;;21.98;;
29908;SDS011;36247;51.952;6.146;2023-01-26T08:09:17;60.22;;;23.52;;
29908;SDS011;36247;51.952;6.146;2023-01-26T08:11:42;65.68;;;24.08;;
29908;SDS011;36247;51.952;6.146;2023-01-26T08:14:08;63.70;;;22.73;;
29908;SDS011;36247;51.952;6.146;2023-01-26T08:16:33;66.40;;;23.63;;
29908;SDS011;36247;51.952;6.146;2023-01-26T08:18:59;56.30;;;20.90;;
29908;SDS011;36247;51.952;6.146;2023-01-26T08:21:24;65.00;;;23.88;;
29908;SDS011;36247;51.952;6.146;2023-01-26T08:23:50;59.58;;;22.27;;
29908;SDS011;36247;51.952;6.146;2023-01-26T08:26:16;61.22;;;23.10;;
29908;SDS011;36247;51.952;6.146;2023-01-26T08:28:43;62.97;;;25.55;;
29908;SDS011;36247;51.952;6.146;2023-01-26T08:31:13;60.88;;;23.52;;
29908;SDS011;36247;51.952;6.146;2023-01-26T08:33:44;65.43;;;25.35;;
29908;SDS011;36247;51.952;6.146;2023-01-26T08:36:15;59.53;;;23.42;;
29908;SDS011;36247;51.952;6.146;2023-01-26T08:38:40;65.78;;;23.95;;
29908;SDS011;36247;51.952;6.146;2023-01-26T08:41:07;60.60;;;22.98;;
29908;SDS011;36247;51.952;6.146;2023-01-26T08:43:33;72.30;;;24.88;;
29908;SDS011;36247;51.952;6.146;2023-01-26T08:45:59;59.92;;;23.20;;
29908;SDS011;36247;51.952;6.146;2023-01-26T08:48:25;61.13;;;23.48;;
29908;SDS011;36247;51.952;6.146;2023-01-26T08:50:54;61.92;;;24.83;;
29908;SDS011;36247;51.952;6.146;2023-01-26T08:53:21;65.10;;;22.52;;
29908;SDS011;36247;51.952;6.146;2023-01-26T08:55:46;76.88;;;24.15;;
29908;SDS011;36247;51.952;6.146;2023-01-26T08:58:12;65.70;;;22.38;;
29908;SDS011;36247;51.952;6.146;2023-01-26T09:00:37;70.95;;;23.55;;
29908;SDS011;36247;51.952;6.146;2023-01-26T09:03:03;70.03;;;25.92;;
29908;SDS011;36247;51.952;6.146;2023-01-26T09:05:30;91.35;;;25.27;;
29908;SDS011;36247;51.952;6.146;2023-01-26T09:07:57;70.97;;;23.27;;
29908;SDS011;36247;51.952;6.146;2023-01-26T09:10:23;75.65;;;25.02;;
29908;SDS011;36247;51.952;6.146;2023-01-26T09:12:48;71.70;;;24.45;;
29908;SDS011;36247;51.952;6.146;2023-01-26T09:15:13;72.85;;;23.90;;
29908;SDS011;36247;51.952;6.146;2023-01-26T09:17:39;87.80;;;25.75;;
29908;SDS011;36247;51.952;6.146;2023-01-26T09:20:06;78.47;;;24.15;;
29908;SDS011;36247;51.952;6.146;2023-01-26T09:22:33;64.13;;;21.95;;
29908;SDS011;36247;51.952;6.146;2023-01-26T09:24:59;67.03;;;24.63;;
29908;SDS011;36247;51.952;6.146;2023-01-26T09:27:24;71.90;;;23.83;;
29908;SDS011;36247;51.952;6.146;2023-01-26T09:29:50;74.50;;;23.95;;
29908;SDS011;36247;51.952;6.146;2023-01-26T09:32:17;86.60;;;24.75;;
29908;SDS011;36247;51.952;6.146;2023-01-26T09:34:43;65.80;;;23.92;;
29908;SDS011;36247;51.952;6.146;2023-01-26T09:37:09;92.22;;;25.70;;
29908;SDS011;36247;51.952;6.146;2023-01-26T09:39:34;72.28;;;24.70;;
29908;SDS011;36247;51.952;6.146;2023-01-26T09:44:38;93.97;;;25.13;;
29908;SDS011;36247;51.952;6.146;2023-01-26T09:47:18;83.10;;;23.60;;
29908;SDS011;36247;51.952;6.146;2023-01-26T09:49:55;102.40;;;26.55;;
29908;SDS011;36247;51.952;6.146;2023-01-26T09:52:29;97.72;;;24.17;;
29908;SDS011;36247;51.952;6.146;2023-01-26T09:55:01;84.45;;;24.65;;
29908;SDS011;36247;51.952;6.146;2023-01-26T09:57:38;111.40;;;27.92;;
29908;SDS011;36247;51.952;6.146;2023-01-26T10:00:09;94.60;;;23.60;;
29908;SDS011;36247;51.952;6.146;2023-01-26T10:05:18;132.50;;;26.90;;
29908;SDS011;36247;51.952;6.146;2023-01-26T10:07:45;119.82;;;27.13;;
29908;SDS011;36247;51.952;6.146;2023-01-26T10:10:16;181.52;;;31.30;;
29908;SDS011;36247;51.952;6.146;2023-01-26T10:12:48;195.80;;;27.45;;
29908;SDS011;36247;51.952;6.146;2023-01-26T10:17:54;240.27;;;33.75;;
29908;SDS011;36247;51.952;6.146;2023-01-26T10:23:04;201.45;;;27.23;;
29908;SDS011;36247;51.952;6.146;2023-01-26T10:25:38;111.43;;;24.77;;
29908;SDS011;36247;51.952;6.146;2023-01-26T10:28:15;163.48;;;26.40;;
29908;SDS011;36247;51.952;6.146;2023-01-26T10:30:44;130.95;;;25.63;;
29908;SDS011;36247;51.952;6.146;2023-01-26T10:33:30;213.90;;;30.30;;
29908;SDS011;36247;51.952;6.146;2023-01-26T10:36:00;104.28;;;24.35;;
29908;SDS011;36247;51.952;6.146;2023-01-26T10:41:03;129.27;;;24.48;;
29908;SDS011;36247;51.952;6.146;2023-01-26T10:43:33;120.20;;;22.50;;
29908;SDS011;36247;51.952;6.146;2023-01-26T10:46:02;126.35;;;23.08;;
29908;SDS011;36247;51.952;6.146;2023-01-26T10:48:28;164.57;;;24.05;;
29908;SDS011;36247;51.952;6.146;2023-01-26T10:50:54;119.53;;;23.63;;
29908;SDS011;36247;51.952;6.146;2023-01-26T10:53:39;197.70;;;24.25;;
29908;SDS011;36247;51.952;6.146;2023-01-26T10:58:40;91.40;;;20.83;;
29908;SDS011;36247;51.952;6.146;2023-01-26T11:01:09;105.47;;;19.20;;
29908;SDS011;36247;51.952;6.146;2023-01-26T11:03:36;106.05;;;20.52;;
29908;SDS011;36247;51.952;6.146;2023-01-26T11:06:15;93.75;;;17.88;;
29908;SDS011;36247;51.952;6.146;2023-01-26T11:08:42;78.00;;;17.83;;
29908;SDS011;36247;51.952;6.146;2023-01-26T11:11:26;79.22;;;18.20;;
29908;SDS011;36247;51.952;6.146;2023-01-26T11:16:53;95.43;;;18.65;;
29908;SDS011;36247;51.952;6.146;2023-01-26T11:22:25;100.38;;;19.17;;
29908;SDS011;36247;51.952;6.146;2023-01-26T11:25:01;93.43;;;19.92;;
29908;SDS011;36247;51.952;6.146;2023-01-26T11:35:56;67.15;;;15.73;;
29908;SDS011;36247;51.952;6.146;2023-01-26T11:38:29;66.70;;;16.90;;
29908;SDS011;36247;51.952;6.146;2023-01-26T11:52:20;74.13;;;20.35;;
29908;SDS011;36247;51.952;6.146;2023-01-26T12:00:16;56.85;;;18.58;;
29908;SDS011;36247;51.952;6.146;2023-01-26T12:02:48;64.07;;;15.80;;
29908;SDS011;36247;51.952;6.146;2023-01-26T12:05:29;70.35;;;17.55;;
29908;SDS011;36247;51.952;6.146;2023-01-26T12:08:03;58.65;;;14.80;;
29908;SDS011;36247;51.952;6.146;2023-01-26T16:25:27;11.95;;;3.25;;
29908;SDS011;36247;51.952;6.146;2023-01-26T16:27:54;15.20;;;3.17;;
29908;SDS011;36247;51.952;6.146;2023-01-26T16:30:21;14.35;;;4.03;;
29908;SDS011;36247;51.952;6.146;2023-01-26T16:32:47;14.55;;;3.20;;
29908;SDS011;36247;51.952;6.146;2023-01-26T16:35:15;11.18;;;2.55;;
29908;SDS011;36247;51.952;6.146;2023-01-26T16:37:44;15.18;;;4.50;;
29908;SDS011;36247;51.952;6.146;2023-01-26T16:40:11;13.90;;;3.00;;
29908;SDS011;36247;51.952;6.146;2023-01-26T16:42:41;18.25;;;3.88;;
29908;SDS011;36247;51.952;6.146;2023-01-26T16:45:16;14.68;;;3.35;;
29908;SDS011;36247;51.952;6.146;2023-01-26T16:47:44;11.60;;;3.03;;
29908;SDS011;36247;51.952;6.146;2023-01-26T16:50:14;13.82;;;2.75;;
29908;SDS011;36247;51.952;6.146;2023-01-26T16:52:39;11.80;;;3.15;;
29908;SDS011;36247;51.952;6.146;2023-01-26T16:55:05;15.95;;;3.08;;
29908;SDS011;36247;51.952;6.146;2023-01-26T16:57:39;10.45;;;2.42;;
29908;SDS011;36247;51.952;6.146;2023-01-26T17:00:07;12.57;;;2.80;;
29908;SDS011;36247;51.952;6.146;2023-01-26T17:02:37;9.68;;;2.80;;
29908;SDS011;36247;51.952;6.146;2023-01-26T17:05:03;9.13;;;2.28;;
29908;SDS011;36247;51.952;6.146;2023-01-26T17:07:29;6.22;;;2.05;;
29908;SDS011;36247;51.952;6.146;2023-01-26T17:09:54;11.75;;;2.78;;
29908;SDS011;36247;51.952;6.146;2023-01-26T17:12:19;7.72;;;2.00;;
29908;SDS011;36247;51.952;6.146;2023-01-26T17:14:45;13.25;;;3.22;;
29908;SDS011;36247;51.952;6.146;2023-01-26T17:17:10;10.30;;;2.33;;
29908;SDS011;36247;51.952;6.146;2023-01-26T17:19:36;9.05;;;2.00;;
29908;SDS011;36247;51.952;6.146;2023-01-26T17:22:02;8.02;;;2.40;;
29908;SDS011;36247;51.952;6.146;2023-01-26T17:24:28;7.68;;;2.20;;
29908;SDS011;36247;51.952;6.146;2023-01-26T17:26:53;14.40;;;2.40;;
29908;SDS011;36247;51.952;6.146;2023-01-26T17:29:19;7.97;;;1.92;;
29908;SDS011;36247;51.952;6.146;2023-01-26T17:31:45;13.23;;;2.95;;
29908;SDS011;36247;51.952;6.146;2023-01-26T17:34:10;10.02;;;2.70;;
29908;SDS011;36247;51.952;6.146;2023-01-26T17:36:36;10.75;;;2.63;;
29908;SDS011;36247;51.952;6.146;2023-01-26T17:39:01;12.48;;;3.25;;
29908;SDS011;36247;51.952;6.146;2023-01-26T17:41:27;9.82;;;2.95;;
29908;SDS011;36247;51.952;6.146;2023-01-26T17:43:52;12.93;;;3.17;;
29908;SDS011;36247;51.952;6.146;2023-01-26T17:46:18;9.90;;;2.50;;
29908;SDS011;36247;51.952;6.146;2023-01-26T17:48:45;14.52;;;3.50;;
29908;SDS011;36247;51.952;6.146;2023-01-26T17:51:12;12.15;;;2.80;;
29908;SDS011;36247;51.952;6.146;2023-01-26T17:53:41;12.50;;;3.05;;
29908;SDS011;36247;51.952;6.146;2023-01-26T17:56:08;16.67;;;3.22;;
29908;SDS011;36247;51.952;6.146;2023-01-26T17:58:35;13.30;;;3.15;;
29908;SDS011;36247;51.952;6.146;2023-01-26T18:01:01;13.50;;;3.05;;
29908;SDS011;36247;51.952;6.146;2023-01-26T18:03:27;21.88;;;3.63;;
29908;SDS011;36247;51.952;6.146;2023-01-26T18:05:52;12.75;;;3.13;;
29908;SDS011;36247;51.952;6.146;2023-01-26T18:08:19;15.15;;;4.40;;
29908;SDS011;36247;51.952;6.146;2023-01-26T18:10:45;12.82;;;3.38;;
29908;SDS011;36247;51.952;6.146;2023-01-26T18:13:11;14.65;;;3.08;;
29908;SDS011;36247;51.952;6.146;2023-01-26T18:15:36;18.00;;;3.72;;
29908;SDS011;36247;51.952;6.146;2023-01-26T18:18:02;20.20;;;2.92;;
29908;SDS011;36247;51.952;6.146;2023-01-26T18:20:28;10.10;;;2.83;;
29908;SDS011;36247;51.952;6.146;2023-01-26T18:22:54;17.08;;;3.97;;
29908;SDS011;36247;51.952;6.146;2023-01-26T18:25:19;19.35;;;3.85;;
29908;SDS011;36247;51.952;6.146;2023-01-26T18:27:45;20.88;;;3.63;;
29908;SDS011;36247;51.952;6.146;2023-01-26T18:30:11;11.85;;;3.55;;
29908;SDS011;36247;51.952;6.146;2023-01-26T18:32:38;13.88;;;3.65;;
29908;SDS011;36247;51.952;6.146;2023-01-26T18:35:04;18.65;;;4.53;;
29908;SDS011;36247;51.952;6.146;2023-01-26T18:37:30;18.90;;;4.55;;
29908;SDS011;36247;51.952;6.146;2023-01-26T18:39:58;26.77;;;4.75;;
29908;SDS011;36247;51.952;6.146;2023-01-26T18:42:24;19.88;;;3.67;;
29908;SDS011;36247;51.952;6.146;2023-01-26T18:44:50;25.52;;;5.60;;
29908;SDS011;36247;51.952;6.146;2023-01-26T18:47:16;20.15;;;4.88;;
29908;SDS011;36247;51.952;6.146;2023-01-26T18:49:41;21.10;;;3.95;;
29908;SDS011;36247;51.952;6.146;2023-01-26T18:52:06;13.32;;;3.63;;
29908;SDS011;36247;51.952;6.146;2023-01-26T18:54:32;17.77;;;4.75;;
29908;SDS011;36247;51.952;6.146;2023-01-26T18:56:58;16.58;;;4.63;;
29908;SDS011;36247;51.952;6.146;2023-01-26T18:59:23;23.52;;;3.70;;
29908;SDS011;36247;51.952;6.146;2023-01-26T19:01:49;20.88;;;4.45;;
29908;SDS011;36247;51.952;6.146;2023-01-26T19:04:15;27.35;;;4.78;;
29908;SDS011;36247;51.952;6.146;2023-01-26T19:06:40;22.00;;;4.60;;
29908;SDS011;36247;51.952;6.146;2023-01-26T19:09:06;20.88;;;4.90;;
29908;SDS011;36247;51.952;6.146;2023-01-26T19:11:33;21.40;;;4.13;;
29908;SDS011;36247;51.952;6.146;2023-01-26T19:14:02;17.15;;;4.85;;
29908;SDS011;36247;51.952;6.146;2023-01-26T19:16:30;24.88;;;5.28;;
29908;SDS011;36247;51.952;6.146;2023-01-26T19:18:56;18.90;;;3.53;;
29908;SDS011;36247;51.952;6.146;2023-01-26T19:21:22;25.83;;;4.60;;
29908;SDS011;36247;51.952;6.146;2023-01-26T19:23:50;25.88;;;4.18;;
29908;SDS011;36247;51.952;6.146;2023-01-26T19:26:17;22.92;;;4.20;;
29908;SDS011;36247;51.952;6.146;2023-01-26T19:28:45;24.90;;;4.10;;
29908;SDS011;36247;51.952;6.146;2023-01-26T19:31:11;22.83;;;4.28;;
29908;SDS011;36247;51.952;6.146;2023-01-26T19:33:37;21.92;;;3.72;;
29908;SDS011;36247;51.952;6.146;2023-01-26T19:36:04;25.80;;;4.40;;
29908;SDS011;36247;51.952;6.146;2023-01-26T19:38:30;19.50;;;3.60;;
29908;SDS011;36247;51.952;6.146;2023-01-26T19:40:57;19.60;;;3.90;;
29908;SDS011;36247;51.952;6.146;2023-01-26T19:43:24;25.25;;;4.60;;